Time;durP1;ratioP1;P1;durP2;ratioP2;P2;SDS_P1;SDS_P2;PMS_P1;PMS_P2;Temp;Humidity;BMP_temperature;BMP_pressure;BME280_temperature;BME280_humidity;BME280_pressure;Samples;Min_cycle;Max_cycle;Signal;HPM_P1;HPM_P2
2023/04/11 00:01:28;;;;;;;13.27;1.77;;;9.20;99.90;;;;;;5026618;28;20067;-71
2023/04/11 00:03:55;;;;;;;12.57;1.95;;;9.10;99.90;;;;;;5029085;28;20047;-72
2023/04/11 00:06:23;;;;;;;9.93;1.58;;;9.10;99.90;;;;;;5016491;28;20596;-72
2023/04/11 00:08:48;;;;;;;15.93;2.42;;;9.10;99.90;;;;;;5011575;28;20489;-72
2023/04/11 00:11:14;;;;;;;12.02;1.98;;;9.00;99.90;;;;;;5026608;28;20102;-72
2023/04/11 00:13:41;;;;;;;10.88;1.83;;;9.40;99.90;;;;;;5028487;28;20526;-72
2023/04/11 00:16:08;;;;;;;15.38;2.42;;;9.00;99.90;;;;;;5043832;28;20173;-72
2023/04/11 00:18:36;;;;;;;10.05;1.73;;;8.90;99.90;;;;;;5046388;28;20053;-71
2023/04/11 00:21:07;;;;;;;10.23;2.53;;;8.90;99.90;;;;;;5011325;28;20580;-70
2023/04/11 00:23:32;;;;;;;11.98;1.90;;;8.90;99.90;;;;;;5027456;28;20044;-71
2023/04/11 00:25:58;;;;;;;12.73;2.22;;;8.90;99.90;;;;;;5027616;28;20068;-70
2023/04/11 00:28:24;;;;;;;13.45;2.50;;;8.80;99.90;;;;;;5046335;28;20664;-71
2023/04/11 00:30:50;;;;;;;13.57;1.98;;;8.80;99.90;;;;;;5017809;28;20057;-71
2023/04/11 00:33:15;;;;;;;14.25;2.28;;;8.80;99.90;;;;;;5036825;28;20124;-71
2023/04/11 00:35:41;;;;;;;12.05;2.60;;;8.70;99.90;;;;;;5045889;28;20120;-70
2023/04/11 00:38:07;;;;;;;16.42;2.30;;;8.70;99.90;;;;;;5027777;28;20099;-71
2023/04/11 00:40:33;;;;;;;16.73;2.58;;;8.60;99.90;;;;;;5007802;28;20140;-71
2023/04/11 00:42:59;;;;;;;10.85;2.30;;;8.60;99.90;;;;;;5025627;28;20053;-71
2023/04/11 00:45:25;;;;;;;16.75;2.55;;;8.50;99.90;;;;;;5022825;28;20418;-71
2023/04/11 00:47:52;;;;;;;15.77;2.95;;;8.50;99.90;;;;;;5008507;28;20049;-71
2023/04/11 00:50:20;;;;;;;15.90;2.35;;;8.50;99.90;;;;;;5023402;28;20045;-70
2023/04/11 00:52:49;;;;;;;22.40;2.65;;;8.40;99.90;;;;;;5011440;28;20048;-70
2023/04/11 00:55:16;;;;;;;15.13;2.78;;;8.40;99.90;;;;;;5028793;28;20053;-70
2023/04/11 00:57:43;;;;;;;15.40;2.47;;;8.40;99.90;;;;;;5029154;28;20104;-74
2023/04/11 01:00:09;;;;;;;17.02;2.28;;;8.30;99.90;;;;;;5025321;28;20449;-74
2023/04/11 01:02:36;;;;;;;14.80;2.83;;;8.30;99.90;;;;;;5028301;28;20711;-75
2023/04/11 01:05:06;;;;;;;17.23;2.65;;;8.30;99.90;;;;;;5011808;28;20495;-75
2023/04/11 01:07:33;;;;;;;19.00;2.75;;;8.30;99.90;;;;;;5028650;28;20056;-75
2023/04/11 01:10:01;;;;;;;22.75;3.13;;;8.30;99.90;;;;;;5009553;28;20037;-75
2023/04/11 01:12:28;;;;;;;14.63;2.50;;;8.30;99.90;;;;;;5020308;28;20096;-75
2023/04/11 01:14:54;;;;;;;15.60;2.50;;;8.20;99.90;;;;;;5026085;28;20068;-74
2023/04/11 01:17:20;;;;;;;19.45;2.42;;;8.20;99.90;;;;;;5028702;28;20072;-74
2023/04/11 01:19:47;;;;;;;18.52;2.58;;;8.20;99.90;;;;;;5028687;28;20695;-74
2023/04/11 01:22:16;;;;;;;16.75;1.92;;;8.20;99.90;;;;;;5011820;28;20164;-75
2023/04/11 01:24:43;;;;;;;18.00;2.42;;;8.20;99.90;;;;;;5021748;28;20176;-74
2023/04/11 01:27:12;;;;;;;16.83;2.63;;;8.10;99.90;;;;;;5025387;28;20033;-75
2023/04/11 01:29:37;;;;;;;14.07;1.83;;;8.10;99.90;;;;;;5027494;28;20053;-75
2023/04/11 01:32:03;;;;;;;12.18;1.90;;;8.10;99.90;;;;;;5026738;28;20049;-74
2023/04/11 01:34:30;;;;;;;17.48;2.50;;;8.10;99.90;;;;;;5029349;28;20462;-74
2023/04/11 01:36:56;;;;;;;10.52;1.90;;;8.30;99.90;;;;;;5026982;28;20593;-75
2023/04/11 01:39:22;;;;;;;10.02;1.30;;;8.00;99.90;;;;;;5012185;28;20148;-74
2023/04/11 01:41:49;;;;;;;11.68;1.50;;;8.00;99.90;;;;;;5012163;28;20480;-74
2023/04/11 01:44:15;;;;;;;11.48;1.70;;;8.10;99.90;;;;;;5030556;28;20102;-75
2023/04/11 01:46:42;;;;;;;17.20;2.15;;;7.90;99.90;;;;;;5028109;28;20037;-75
2023/04/11 01:49:08;;;;;;;10.35;1.35;;;8.00;99.90;;;;;;5031029;28;20049;-74
2023/04/11 01:51:35;;;;;;;7.68;1.30;;;7.90;99.90;;;;;;5029840;28;20040;-75
2023/04/11 01:54:00;;;;;;;8.75;1.20;;;7.80;99.90;;;;;;5013504;28;20045;-75
2023/04/11 01:56:26;;;;;;;7.28;1.73;;;7.80;99.90;;;;;;5030148;28;20057;-75
2023/04/11 01:58:52;;;;;;;3.25;0.63;;;7.90;99.90;;;;;;5030493;28;20065;-75
2023/04/11 02:01:21;;;;;;;4.72;0.70;;;7.80;99.90;;;;;;5029748;28;20057;-74
2023/04/11 02:03:47;;;;;;;5.57;0.90;;;7.80;99.90;;;;;;5028088;28;20557;-74
2023/04/11 02:06:15;;;;;;;2.92;0.80;;;7.80;99.90;;;;;;5045848;28;20051;-74
2023/04/11 02:08:41;;;;;;;4.88;1.00;;;7.90;99.90;;;;;;5056124;28;20108;-75
2023/04/11 02:11:07;;;;;;;3.92;0.73;;;7.70;99.90;;;;;;5041051;28;20049;-75
2023/04/11 02:13:33;;;;;;;5.00;0.80;;;7.70;99.90;;;;;;5024682;28;20409;-75
2023/04/11 02:16:13;;;;;;;2.80;0.85;;;7.70;99.90;;;;;;5030435;28;20044;-75
2023/04/11 02:18:41;;;;;;;5.57;0.93;;;7.70;99.90;;;;;;5013839;28;20136;-75
2023/04/11 02:21:07;;;;;;;3.67;0.93;;;7.70;99.90;;;;;;5023136;28;20131;-74
2023/04/11 02:23:33;;;;;;;3.38;0.85;;;7.80;99.90;;;;;;5018919;28;20132;-75
2023/04/11 02:26:00;;;;;;;4.10;1.00;;;7.80;99.90;;;;;;5030225;28;20077;-74
2023/04/11 02:28:26;;;;;;;5.72;0.82;;;8.20;99.90;;;;;;5012908;28;20131;-75
2023/04/11 02:30:52;;;;;;;3.65;0.90;;;7.70;99.90;;;;;;5013141;28;20040;-74
2023/04/11 02:33:18;;;;;;;6.43;0.93;;;7.70;99.90;;;;;;5013437;28;20612;-75
2023/04/11 02:35:45;;;;;;;5.53;0.88;;;7.70;99.90;;;;;;5014005;28;20045;-75
2023/04/11 02:38:11;;;;;;;6.07;0.80;;;7.70;99.90;;;;;;5029351;28;20505;-75
2023/04/11 02:40:36;;;;;;;7.15;1.50;;;7.70;99.90;;;;;;5030115;28;20060;-75
2023/04/11 02:43:02;;;;;;;4.75;0.90;;;7.70;99.90;;;;;;5047366;28;20102;-75
2023/04/11 02:45:28;;;;;;;5.93;1.17;;;7.70;99.90;;;;;;5033236;28;20044;-75
2023/04/11 02:47:54;;;;;;;8.05;0.90;;;7.70;99.90;;;;;;5030576;28;20041;-75
2023/04/11 02:50:19;;;;;;;5.00;1.13;;;7.60;99.90;;;;;;5014084;28;20134;-74
2023/04/11 02:52:48;;;;;;;7.63;1.10;;;7.70;99.90;;;;;;5043298;28;21511;-75
2023/04/11 02:55:13;;;;;;;5.72;1.20;;;7.70;99.90;;;;;;5010148;28;20044;-74
2023/04/11 02:57:39;;;;;;;6.65;1.25;;;7.70;99.90;;;;;;5012620;28;20067;-74
2023/04/11 03:00:06;;;;;;;5.47;1.20;;;7.70;99.90;;;;;;5014302;28;20576;-74
2023/04/11 03:02:32;;;;;;;7.38;1.50;;;7.70;99.90;;;;;;5012776;28;20092;-74
2023/04/11 03:05:02;;;;;;;7.35;1.20;;;7.70;99.90;;;;;;5029168;28;20040;-74
2023/04/11 03:07:31;;;;;;;8.20;1.42;;;7.70;99.90;;;;;;5004300;28;20106;-74
2023/04/11 03:09:57;;;;;;;5.65;1.25;;;7.70;99.90;;;;;;5009474;28;20049;-74
2023/04/11 03:12:23;;;;;;;7.05;1.33;;;7.70;99.90;;;;;;5016551;28;20106;-74
2023/04/11 03:14:49;;;;;;;9.07;1.20;;;7.70;99.90;;;;;;5029714;28;20037;-74
2023/04/11 03:17:14;;;;;;;8.32;1.38;;;7.70;99.90;;;;;;5013157;28;20040;-74
2023/04/11 03:19:40;;;;;;;7.53;1.27;;;7.70;99.90;;;;;;5010227;28;20505;-74
2023/04/11 03:22:06;;;;;;;8.45;1.52;;;7.70;99.90;;;;;;5029242;28;20039;-74
2023/04/11 03:24:32;;;;;;;9.75;1.35;;;7.70;99.90;;;;;;5045839;28;20180;-75
2023/04/11 03:26:57;;;;;;;8.82;1.92;;;7.70;99.90;;;;;;5011632;28;20099;-74
2023/04/11 03:29:23;;;;;;;9.55;2.72;;;7.70;99.90;;;;;;5013179;28;20410;-74
2023/04/11 03:31:49;;;;;;;9.13;1.48;;;7.70;99.90;;;;;;5027102;28;20040;-74
2023/04/11 03:34:16;;;;;;;8.38;1.73;;;7.70;99.90;;;;;;5009263;28;20047;-74
2023/04/11 03:36:42;;;;;;;10.52;1.65;;;7.70;99.90;;;;;;5028885;28;20151;-74
2023/04/11 03:39:08;;;;;;;11.43;1.65;;;7.70;99.90;;;;;;5028604;28;20135;-74
2023/04/11 03:41:34;;;;;;;15.02;2.00;;;7.80;99.90;;;;;;5024708;28;20045;-73
2023/04/11 03:44:00;;;;;;;12.65;1.70;;;7.70;99.90;;;;;;5008719;28;20525;-74
2023/04/11 03:46:26;;;;;;;8.07;1.58;;;7.70;99.90;;;;;;5026288;28;20038;-75
2023/04/11 03:48:52;;;;;;;13.75;2.00;;;7.70;99.90;;;;;;5025460;28;20128;-74
2023/04/11 03:51:18;;;;;;;13.88;2.30;;;7.80;99.90;;;;;;5023424;28;20037;-74
2023/04/11 03:53:43;;;;;;;11.18;1.95;;;7.70;99.90;;;;;;5025687;28;20049;-75
2023/04/11 03:56:09;;;;;;;13.85;2.60;;;7.80;99.90;;;;;;5023791;28;20079;-75
2023/04/11 03:58:35;;;;;;;16.63;2.08;;;7.70;99.90;;;;;;5024739;28;20056;-75
2023/04/11 04:01:01;;;;;;;14.52;2.17;;;7.70;99.90;;;;;;5020568;28;20692;-75
2023/04/11 04:03:27;;;;;;;16.13;2.83;;;7.70;99.90;;;;;;5000571;28;20041;-74
2023/04/11 04:05:53;;;;;;;10.82;2.28;;;7.70;99.90;;;;;;5023546;28;20069;-75
2023/04/11 04:08:18;;;;;;;12.32;2.35;;;7.70;99.90;;;;;;4999990;28;20089;-75
2023/04/11 04:10:45;;;;;;;10.85;2.00;;;7.70;99.90;;;;;;5004425;28;20084;-75
2023/04/11 04:13:11;;;;;;;12.55;2.35;;;7.70;99.90;;;;;;5012590;28;20335;-75
2023/04/11 04:15:37;;;;;;;12.38;2.22;;;7.70;99.90;;;;;;5006752;28;20115;-74
2023/04/11 04:18:03;;;;;;;16.60;2.60;;;7.70;99.90;;;;;;5010885;28;20124;-74
2023/04/11 04:20:29;;;;;;;16.35;2.65;;;7.70;99.90;;;;;;5008250;28;20053;-74
2023/04/11 04:22:55;;;;;;;12.18;2.42;;;7.70;99.90;;;;;;5007974;28;20205;-74
2023/04/11 04:25:23;;;;;;;12.80;2.20;;;7.70;99.90;;;;;;5010413;28;20038;-74
2023/04/11 04:27:52;;;;;;;15.35;2.25;;;7.70;99.90;;;;;;5009237;28;20524;-74
2023/04/11 04:30:20;;;;;;;13.45;2.63;;;7.70;99.90;;;;;;5010357;28;20046;-75
2023/04/11 04:32:46;;;;;;;19.55;3.55;;;7.70;99.90;;;;;;5011431;28;20108;-74
2023/04/11 04:35:15;;;;;;;8.80;2.13;;;7.70;99.90;;;;;;5003644;28;20050;-74
2023/04/11 04:37:44;;;;;;;14.23;2.78;;;8.00;99.90;;;;;;5010238;28;20052;-74
2023/04/11 04:40:14;;;;;;;16.13;2.83;;;7.70;99.90;;;;;;5013810;28;20147;-74
2023/04/11 04:42:43;;;;;;;11.23;3.10;;;7.60;99.90;;;;;;5011996;28;20169;-74
2023/04/11 04:45:12;;;;;;;12.77;2.72;;;7.60;99.90;;;;;;5010630;28;20124;-75
2023/04/11 04:47:38;;;;;;;15.20;3.38;;;7.60;99.90;;;;;;5010973;28;20049;-74
2023/04/11 04:50:05;;;;;;;11.57;2.97;;;7.60;99.90;;;;;;5008682;28;20655;-75
2023/04/11 04:52:30;;;;;;;17.67;3.28;;;7.60;99.90;;;;;;5026325;28;20045;-74
2023/04/11 04:54:57;;;;;;;14.13;2.40;;;7.50;99.90;;;;;;5014162;28;20041;-74
2023/04/11 04:57:27;;;;;;;14.65;2.42;;;7.50;99.90;;;;;;5011098;28;20041;-76
2023/04/11 04:59:54;;;;;;;16.13;2.90;;;7.50;99.90;;;;;;5013106;28;20037;-75
2023/04/11 05:02:20;;;;;;;10.93;2.28;;;7.50;99.90;;;;;;5027553;28;20045;-75
2023/04/11 05:04:49;;;;;;;11.73;2.60;;;7.50;99.90;;;;;;5029869;28;20045;-74
2023/04/11 05:07:15;;;;;;;13.38;2.45;;;7.50;99.90;;;;;;4987676;28;21692;-74
2023/04/11 05:09:41;;;;;;;11.13;2.67;;;7.50;99.90;;;;;;5012984;28;20053;-75
2023/04/11 05:12:07;;;;;;;12.65;2.42;;;7.50;99.90;;;;;;5029308;28;20048;-75
2023/04/11 05:14:33;;;;;;;16.85;2.53;;;7.50;99.90;;;;;;5019220;28;20068;-73
2023/04/11 05:16:59;;;;;;;9.95;2.10;;;7.50;99.90;;;;;;5019901;28;20045;-75
2023/04/11 05:19:24;;;;;;;16.67;3.25;;;7.50;99.90;;;;;;5018252;28;20413;-76
2023/04/11 05:21:50;;;;;;;16.90;2.47;;;7.80;99.90;;;;;;5012998;28;20386;-74
2023/04/11 05:24:19;;;;;;;11.40;2.72;;;7.50;99.90;;;;;;5028656;28;20049;-74
2023/04/11 05:26:45;;;;;;;14.82;2.80;;;7.50;99.90;;;;;;5035158;28;20045;-74
2023/04/11 05:29:11;;;;;;;18.52;3.20;;;7.50;99.90;;;;;;5041334;28;20122;-74
2023/04/11 05:31:37;;;;;;;11.88;2.58;;;7.50;99.90;;;;;;5024095;28;20048;-73
2023/04/11 05:34:03;;;;;;;16.70;2.40;;;7.50;99.90;;;;;;5039216;28;20040;-74
2023/04/11 05:36:29;;;;;;;18.33;2.45;;;7.50;99.90;;;;;;5043269;28;20033;-73
2023/04/11 05:38:55;;;;;;;11.15;2.33;;;7.60;99.90;;;;;;5022537;28;20493;-74
2023/04/11 05:41:20;;;;;;;13.63;2.65;;;7.40;99.90;;;;;;5032428;28;20091;-73
2023/04/11 05:43:46;;;;;;;13.25;2.50;;;7.40;99.90;;;;;;5041287;28;20464;-74
2023/04/11 05:46:12;;;;;;;17.10;3.10;;;7.50;99.90;;;;;;5013578;28;20048;-74
2023/04/11 05:48:38;;;;;;;21.35;3.95;;;7.50;99.90;;;;;;5029874;28;20044;-73
2023/04/11 05:51:05;;;;;;;18.52;3.40;;;7.50;99.90;;;;;;5022651;28;20049;-74
2023/04/11 05:53:30;;;;;;;19.35;2.95;;;7.50;99.90;;;;;;5046569;28;20045;-74
2023/04/11 05:55:56;;;;;;;15.15;2.80;;;7.50;99.90;;;;;;5027215;28;20045;-74
2023/04/11 05:58:23;;;;;;;14.13;2.42;;;7.50;99.90;;;;;;5007452;28;20049;-73
2023/04/11 06:00:49;;;;;;;14.75;2.65;;;7.50;99.90;;;;;;5027945;28;20049;-74
2023/04/11 06:03:15;;;;;;;17.75;2.72;;;7.50;99.90;;;;;;5028137;28;20044;-74
2023/04/11 06:05:41;;;;;;;17.38;2.83;;;7.50;99.90;;;;;;5033319;28;20124;-74
2023/04/11 06:08:08;;;;;;;16.98;2.70;;;7.50;99.90;;;;;;5012143;28;20783;-73
2023/04/11 06:10:34;;;;;;;15.13;3.00;;;7.80;99.90;;;;;;5029800;28;20040;-73
2023/04/11 06:13:00;;;;;;;13.98;2.38;;;7.50;99.90;;;;;;5029817;28;20167;-73
2023/04/11 06:15:26;;;;;;;14.75;2.50;;;7.50;99.90;;;;;;5028483;28;20120;-73
2023/04/11 06:17:52;;;;;;;18.35;2.38;;;7.50;99.90;;;;;;5029935;28;20045;-75
2023/04/11 06:20:19;;;;;;;18.88;2.60;;;7.50;99.90;;;;;;5046869;28;20053;-75
2023/04/11 06:22:45;;;;;;;16.05;2.70;;;7.50;99.90;;;;;;5045324;28;20083;-74
2023/04/11 06:25:11;;;;;;;14.32;2.33;;;7.50;99.90;;;;;;5030002;28;20049;-73
2023/04/11 06:27:37;;;;;;;14.20;2.72;;;7.60;99.90;;;;;;5012493;28;20041;-74
2023/04/11 06:30:03;;;;;;;14.98;2.85;;;7.50;99.90;;;;;;5019812;28;20036;-74
2023/04/11 06:32:29;;;;;;;20.02;3.22;;;7.60;99.90;;;;;;5044982;28;20040;-73
2023/04/11 06:34:55;;;;;;;18.15;3.45;;;7.60;99.90;;;;;;5027075;28;20777;-72
2023/04/11 06:37:22;;;;;;;17.17;2.90;;;7.60;99.90;;;;;;5030010;28;20123;-74
2023/04/11 06:39:47;;;;;;;14.23;3.03;;;7.60;99.90;;;;;;5029304;28;20053;-73
2023/04/11 06:42:13;;;;;;;16.52;2.78;;;7.60;99.90;;;;;;5028678;28;20059;-74
2023/04/11 06:44:39;;;;;;;16.92;2.78;;;7.60;99.90;;;;;;5043923;28;20127;-74
2023/04/11 06:47:04;;;;;;;10.70;2.50;;;7.70;99.90;;;;;;5046476;28;20214;-74
2023/04/11 06:49:31;;;;;;;17.02;2.50;;;7.70;99.90;;;;;;5026181;28;20049;-73
2023/04/11 06:51:58;;;;;;;13.82;2.28;;;7.80;99.90;;;;;;5020772;28;20040;-74
2023/04/11 06:54:24;;;;;;;19.08;2.42;;;7.70;99.90;;;;;;5028949;28;20045;-74
2023/04/11 06:56:53;;;;;;;16.23;2.83;;;7.70;99.90;;;;;;5025646;28;20049;-74
2023/04/11 06:59:19;;;;;;;21.00;2.80;;;7.80;99.90;;;;;;5023867;28;20053;-74
2023/04/11 07:01:48;;;;;;;15.90;3.00;;;7.80;99.90;;;;;;5023881;28;20048;-74
2023/04/11 07:04:15;;;;;;;15.23;2.33;;;7.80;99.90;;;;;;5042515;28;20046;-74
2023/04/11 07:06:41;;;;;;;22.17;3.08;;;7.80;99.90;;;;;;5041991;28;20082;-74
2023/04/11 07:09:08;;;;;;;16.25;2.65;;;7.80;99.90;;;;;;5042815;28;20041;-74
2023/04/11 07:11:34;;;;;;;14.52;2.55;;;7.80;99.90;;;;;;5012384;28;20079;-74
2023/04/11 07:14:01;;;;;;;17.08;3.05;;;8.20;99.90;;;;;;5028035;28;20036;-74
2023/04/11 07:16:27;;;;;;;14.43;2.90;;;7.80;99.90;;;;;;5027352;28;20456;-74
2023/04/11 07:18:53;;;;;;;11.82;2.25;;;7.80;99.90;;;;;;5026459;28;20520;-73
2023/04/11 07:21:20;;;;;;;15.57;2.38;;;7.80;99.90;;;;;;5047254;28;20037;-74
2023/04/11 07:23:48;;;;;;;19.27;2.97;;;7.80;99.90;;;;;;5029715;28;20080;-73
2023/04/11 07:26:15;;;;;;;11.55;2.40;;;7.90;99.90;;;;;;5012080;28;20087;-74
2023/04/11 07:28:42;;;;;;;15.07;2.13;;;8.60;99.90;;;;;;5025299;28;20074;-74
2023/04/11 07:31:12;;;;;;;13.70;2.78;;;8.20;99.90;;;;;;5011265;28;20088;-74
2023/04/11 07:33:41;;;;;;;18.58;2.30;;;8.40;99.90;;;;;;5027846;28;20048;-74
2023/04/11 07:36:07;;;;;;;15.88;2.22;;;8.50;99.90;;;;;;5025240;28;20139;-74
2023/04/11 07:38:33;;;;;;;18.48;3.22;;;8.50;99.90;;;;;;5006823;28;20036;-74
2023/04/11 07:41:03;;;;;;;22.73;2.58;;;8.60;99.90;;;;;;5022308;28;20063;-74
2023/04/11 07:43:30;;;;;;;13.63;2.78;;;8.60;99.90;;;;;;5042349;28;20049;-74
2023/04/11 07:45:57;;;;;;;7.55;1.50;;;8.60;99.90;;;;;;5025597;28;20107;-73
2023/04/11 07:48:25;;;;;;;10.30;1.77;;;8.60;99.90;;;;;;5045541;28;20060;-73
2023/04/11 07:50:54;;;;;;;11.18;2.13;;;8.40;99.90;;;;;;5026296;28;20501;-73
2023/04/11 07:53:21;;;;;;;14.40;2.10;;;8.10;99.90;;;;;;5045184;28;20052;-72
2023/04/11 07:55:47;;;;;;;16.08;2.30;;;7.90;99.90;;;;;;5027849;28;20127;-73
2023/04/11 07:58:12;;;;;;;11.40;2.67;;;7.90;99.90;;;;;;5005975;28;20562;-73
2023/04/11 08:00:38;;;;;;;10.68;2.30;;;7.80;99.90;;;;;;5045066;28;20040;-72
2023/04/11 08:03:08;;;;;;;13.20;2.45;;;7.90;99.90;;;;;;5046600;28;20136;-73
2023/04/11 08:05:35;;;;;;;14.15;2.28;;;7.70;99.90;;;;;;5048640;28;20041;-72
2023/04/11 08:08:02;;;;;;;12.82;2.38;;;7.70;99.90;;;;;;5025583;28;20083;-73
2023/04/11 08:10:28;;;;;;;15.95;2.38;;;7.70;99.90;;;;;;5028409;28;20416;-72
2023/04/11 08:12:55;;;;;;;11.02;2.28;;;7.80;99.90;;;;;;5028738;28;20033;-74
2023/04/11 08:15:24;;;;;;;13.93;2.50;;;7.80;99.90;;;;;;5029436;28;20048;-73
2023/04/11 08:17:54;;;;;;;18.95;2.63;;;7.80;99.90;;;;;;5046486;28;20052;-74
2023/04/11 08:20:24;;;;;;;16.52;2.85;;;7.90;99.90;;;;;;5012094;28;20155;-73
2023/04/11 08:22:52;;;;;;;20.85;2.60;;;7.90;99.90;;;;;;5008906;28;20106;-74
2023/04/11 08:25:23;;;;;;;16.00;2.40;;;8.00;99.90;;;;;;5042050;28;20041;-73
2023/04/11 08:27:49;;;;;;;19.25;3.08;;;8.00;99.90;;;;;;5008494;28;20048;-73
2023/04/11 08:30:16;;;;;;;17.98;2.28;;;8.10;99.90;;;;;;5027396;28;20509;-73
2023/04/11 08:32:42;;;;;;;15.77;3.33;;;8.20;99.90;;;;;;5041987;28;20047;-73
2023/04/11 08:35:08;;;;;;;17.13;2.72;;;8.40;99.90;;;;;;5038686;28;20545;-74
2023/04/11 08:37:34;;;;;;;16.77;1.88;;;8.60;99.90;;;;;;5023795;28;20033;-74
2023/04/11 08:39:59;;;;;;;12.93;2.42;;;8.90;99.90;;;;;;5045741;28;20064;-74
2023/04/11 08:42:27;;;;;;;9.13;1.90;;;8.70;99.90;;;;;;5019408;28;20106;-74
2023/04/11 08:44:55;;;;;;;12.80;2.17;;;8.70;99.90;;;;;;5053255;28;20044;-74
2023/04/11 08:47:21;;;;;;;13.77;2.50;;;8.70;99.90;;;;;;5020047;28;20048;-73
2023/04/11 08:49:48;;;;;;;11.35;2.08;;;8.60;99.90;;;;;;5035485;28;20080;-74
2023/04/11 08:52:15;;;;;;;7.50;1.58;;;8.70;99.90;;;;;;5010779;28;20766;-73
2023/04/11 08:54:40;;;;;;;12.02;2.25;;;8.40;99.90;;;;;;5043380;28;20052;-74
2023/04/11 08:57:06;;;;;;;13.23;2.30;;;8.30;99.90;;;;;;5024498;28;20064;-74
2023/04/11 08:59:35;;;;;;;11.18;2.03;;;8.40;99.90;;;;;;5012537;28;20056;-74
2023/04/11 09:02:10;;;;;;;14.25;2.22;;;8.40;99.90;;;;;;5027394;28;20137;-74
2023/04/11 09:04:40;;;;;;;8.43;2.42;;;8.50;99.90;;;;;;5013522;28;20060;-75
2023/04/11 09:07:06;;;;;;;16.05;2.10;;;8.80;99.90;;;;;;5028738;28;20060;-74
2023/04/11 09:09:31;;;;;;;17.10;2.83;;;8.90;99.90;;;;;;5045730;28;20052;-74
2023/04/11 09:11:58;;;;;;;15.65;2.15;;;9.10;99.90;;;;;;5028521;28;20486;-74
2023/04/11 09:14:25;;;;;;;16.67;2.40;;;9.20;99.90;;;;;;5050519;28;20052;-74
2023/04/11 09:16:57;;;;;;;12.45;2.53;;;9.20;99.90;;;;;;5049993;28;20676;-74
2023/04/11 09:19:24;;;;;;;14.25;2.38;;;9.20;99.90;;;;;;5018575;28;20037;-74
2023/04/11 09:21:53;;;;;;;12.32;2.58;;;9.20;99.90;;;;;;5031297;28;20045;-75
2023/04/11 09:24:18;;;;;;;15.45;2.10;;;9.20;99.90;;;;;;5049822;28;20398;-74
2023/04/11 09:26:44;;;;;;;12.07;2.35;;;9.40;99.90;;;;;;5049079;28;20045;-74
2023/04/11 09:29:10;;;;;;;14.27;2.08;;;9.50;99.90;;;;;;5032049;28;20041;-74
2023/04/11 09:31:41;;;;;;;12.50;1.95;;;9.50;99.90;;;;;;5030760;28;20083;-74
2023/04/11 09:34:07;;;;;;;7.85;1.60;;;9.40;99.90;;;;;;5031355;28;20083;-75
2023/04/11 09:36:33;;;;;;;10.82;1.58;;;9.30;99.90;;;;;;5030008;28;20068;-74
2023/04/11 09:38:58;;;;;;;13.32;1.90;;;9.10;99.90;;;;;;5031858;28;20060;-75
2023/04/11 09:41:35;;;;;;;14.50;2.15;;;9.00;99.90;;;;;;5045051;28;20057;-74
2023/04/11 09:44:01;;;;;;;9.65;1.98;;;8.90;99.90;;;;;;5040112;28;20069;-76
2023/04/11 09:46:27;;;;;;;12.32;2.67;;;8.90;99.90;;;;;;5048868;28;20049;-75
2023/04/11 09:48:54;;;;;;;15.07;2.22;;;8.90;99.90;;;;;;5029439;28;20045;-74
2023/04/11 09:51:20;;;;;;;13.07;1.80;;;9.00;99.90;;;;;;5031643;28;20128;-74
2023/04/11 09:53:46;;;;;;;9.15;1.38;;;8.70;99.90;;;;;;5031303;28;20731;-75
2023/04/11 09:56:12;;;;;;;6.95;1.20;;;8.50;99.90;;;;;;5021464;28;20136;-75
2023/04/11 09:58:39;;;;;;;7.13;1.75;;;8.30;99.90;;;;;;5013727;28;20066;-74
2023/04/11 10:01:09;;;;;;;11.02;1.60;;;8.30;99.90;;;;;;5029589;28;20045;-75
2023/04/11 10:03:37;;;;;;;10.43;1.70;;;8.20;99.90;;;;;;5047417;28;20132;-75
2023/04/11 10:06:13;;;;;;;8.30;1.27;;;8.20;99.90;;;;;;5032699;28;20107;-74
2023/04/11 10:08:40;;;;;;;8.07;1.38;;;8.10;99.90;;;;;;5011076;28;20080;-73
2023/04/11 10:11:13;;;;;;;8.00;1.23;;;8.00;99.90;;;;;;5025172;28;20651;-73
2023/04/11 10:13:46;;;;;;;13.77;1.95;;;8.00;99.90;;;;;;5040440;28;20045;-74
2023/04/11 10:16:20;;;;;;;9.07;1.17;;;7.90;99.90;;;;;;5041704;28;20128;-74
2023/04/11 10:18:51;;;;;;;13.13;1.50;;;7.80;99.90;;;;;;5006316;28;20124;-74
2023/04/11 10:21:29;;;;;;;9.65;1.17;;;7.70;99.90;;;;;;5026595;28;20037;-74
2023/04/11 10:24:12;;;;;;;7.82;1.30;;;7.60;99.90;;;;;;5025437;28;20041;-73
2023/04/11 10:26:46;;;;;;;6.95;1.65;;;7.50;99.90;;;;;;5029418;28;20053;-74
2023/04/11 10:29:27;;;;;;;11.52;1.83;;;7.40;99.90;;;;;;5014174;28;20394;-75
2023/04/11 10:32:17;;;;;;;8.85;1.50;;;7.30;99.90;;;;;;5013461;28;20045;-74
2023/04/11 10:34:49;;;;;;;7.72;1.00;;;7.10;99.90;;;;;;5014166;28;20096;-73
2023/04/11 10:37:17;;;;;;;7.25;1.10;;;7.10;99.90;;;;;;5024854;28;20559;-74
2023/04/11 10:39:59;;;;;;;4.07;0.85;;;7.00;99.90;;;;;;5024823;28;20691;-74
2023/04/11 10:42:26;;;;;;;5.35;1.10;;;6.90;99.90;;;;;;5025102;28;20056;-76
2023/04/11 10:45:24;;;;;;;5.70;1.65;;;6.90;99.90;;;;;;5031013;28;20044;-74
2023/04/11 10:47:50;;;;;;;10.02;1.52;;;6.90;99.90;;;;;;4998985;28;20106;-75
2023/04/11 10:50:25;;;;;;;7.60;1.95;;;6.90;99.90;;;;;;5039307;28;20049;-75
2023/04/11 10:53:02;;;;;;;10.18;1.80;;;7.00;99.90;;;;;;5034160;28;20118;-74
2023/04/11 10:55:31;;;;;;;9.27;1.60;;;7.00;99.90;;;;;;5004389;28;20045;-75
2023/04/11 10:58:18;;;;;;;11.80;1.73;;;7.10;99.90;;;;;;5036309;28;20086;-74
2023/04/11 11:00:53;;;;;;;8.95;1.55;;;7.60;99.90;;;;;;5029912;28;20049;-75
2023/04/11 11:03:24;;;;;;;10.15;1.70;;;7.10;99.90;;;;;;5040318;28;20128;-74
2023/04/11 11:06:05;;;;;;;10.82;1.98;;;7.20;99.90;;;;;;5012152;28;20053;-74
2023/04/11 11:08:45;;;;;;;8.87;1.83;;;7.20;99.90;;;;;;5020071;28;20041;-74
2023/04/11 11:11:12;;;;;;;10.30;1.70;;;7.20;99.90;;;;;;5038917;28;20049;-74
2023/04/11 11:13:39;;;;;;;11.48;2.00;;;7.30;99.90;;;;;;5042330;28;20037;-74
2023/04/11 11:16:07;;;;;;;12.70;2.00;;;7.30;99.90;;;;;;5042999;28;21690;-75
2023/04/11 11:18:33;;;;;;;11.00;1.98;;;7.20;99.90;;;;;;5030536;28;20041;-74
2023/04/11 11:20:59;;;;;;;9.93;1.85;;;7.30;99.90;;;;;;5003533;28;21915;-74
2023/04/11 11:23:25;;;;;;;11.43;2.03;;;7.30;99.90;;;;;;5031840;28;20083;-76
2023/04/11 11:25:56;;;;;;;7.50;1.65;;;7.50;99.90;;;;;;5015070;28;20828;-74
2023/04/11 11:28:22;;;;;;;10.63;1.27;;;7.50;99.90;;;;;;5014309;28;20410;-75
2023/04/11 11:30:52;;;;;;;7.65;1.35;;;7.50;99.90;;;;;;5014877;28;20088;-74
2023/04/11 11:33:21;;;;;;;7.55;1.20;;;7.50;99.90;;;;;;4999674;28;20044;-74
2023/04/11 11:36:03;;;;;;;6.47;1.10;;;7.60;99.90;;;;;;5015222;28;20737;-74
2023/04/11 11:38:30;;;;;;;10.98;1.48;;;7.60;99.90;;;;;;4999509;28;20429;-75
2023/04/11 11:40:57;;;;;;;8.38;1.30;;;7.60;99.90;;;;;;5030573;28;20061;-74
2023/04/11 11:43:26;;;;;;;8.48;1.42;;;7.60;99.90;;;;;;5015515;28;20091;-73
2023/04/11 11:46:09;;;;;;;7.43;1.60;;;7.70;99.90;;;;;;5011036;28;20925;-75
2023/04/11 11:48:35;;;;;;;14.38;1.83;;;7.80;99.90;;;;;;5030934;28;20119;-73
2023/04/11 11:51:01;;;;;;;14.38;2.22;;;7.80;99.90;;;;;;5018346;28;20409;-74
2023/04/11 11:53:27;;;;;;;12.30;2.00;;;8.00;99.90;;;;;;5005085;28;20067;-75
2023/04/11 11:55:53;;;;;;;15.57;2.15;;;8.20;99.90;;;;;;5014185;28;20139;-75
2023/04/11 11:58:19;;;;;;;16.42;2.55;;;8.40;99.90;;;;;;5015571;28;20033;-75
2023/04/11 12:00:50;;;;;;;17.75;2.40;;;8.60;99.90;;;;;;4998427;28;20128;-75
2023/04/11 12:03:23;;;;;;;18.58;2.28;;;8.70;99.90;;;;;;5031454;28;20056;-75
2023/04/11 12:05:51;;;;;;;18.08;2.58;;;8.90;99.90;;;;;;5013119;28;20441;-75
2023/04/11 12:08:20;;;;;;;15.40;2.38;;;9.00;99.90;;;;;;5031840;28;20554;-75
2023/04/11 12:10:47;;;;;;;18.88;2.70;;;9.00;99.90;;;;;;5033466;28;20041;-74
2023/04/11 12:13:21;;;;;;;15.05;2.60;;;8.90;99.90;;;;;;5036741;28;20563;-75
2023/04/11 12:15:51;;;;;;;15.18;2.58;;;8.90;99.90;;;;;;5021856;28;20073;-74
2023/04/11 12:18:22;;;;;;;8.80;1.83;;;8.90;99.90;;;;;;5029264;28;20048;-75
2023/04/11 12:20:49;;;;;;;14.32;2.10;;;9.00;99.90;;;;;;5003051;28;20045;-75
2023/04/11 12:23:15;;;;;;;12.30;2.03;;;9.20;99.90;;;;;;5037474;28;20040;-74
2023/04/11 12:25:41;;;;;;;13.45;2.65;;;9.50;99.90;;;;;;5014368;28;20056;-74
2023/04/11 12:28:07;;;;;;;10.07;2.13;;;9.50;99.90;;;;;;5031396;28;20131;-74
2023/04/11 12:30:33;;;;;;;14.63;2.10;;;9.50;99.90;;;;;;5026977;28;20048;-75
2023/04/11 12:32:59;;;;;;;12.57;1.67;;;9.40;99.90;;;;;;5018327;28;20041;-74
2023/04/11 12:35:25;;;;;;;16.33;1.90;;;9.20;99.90;;;;;;5032378;28;20103;-74
2023/04/11 12:37:51;;;;;;;12.88;2.20;;;9.10;99.90;;;;;;5042199;28;20041;-74
2023/04/11 12:40:17;;;;;;;15.90;2.35;;;9.10;99.90;;;;;;5030159;28;20444;-75
2023/04/11 12:42:45;;;;;;;15.70;2.28;;;9.10;99.90;;;;;;5030129;28;20517;-74
2023/04/11 12:45:12;;;;;;;13.27;2.28;;;9.30;99.90;;;;;;5018420;28;20052;-74
2023/04/11 12:47:38;;;;;;;16.45;2.45;;;9.40;99.90;;;;;;5044578;28;20131;-76
2023/04/11 12:50:05;;;;;;;13.30;2.38;;;9.50;99.90;;;;;;5020492;28;20076;-74
2023/04/11 12:52:33;;;;;;;10.55;2.05;;;9.50;99.90;;;;;;5038054;28;20051;-76